sensor_id;sensor_type;location;lat;lon;timestamp;pressure;altitude;pressure_sealevel;temperature;humidity
42761;BME280;31672;47.638;19.026;2024-02-16T00:01:10;100885.66;;;6.37;100.00
42761;BME280;31672;47.638;19.026;2024-02-16T00:06:14;100871.63;;;6.37;100.00
42761;BME280;31672;47.638;19.026;2024-02-16T00:11:17;100871.84;;;6.34;100.00
42761;BME280;31672;47.638;19.026;2024-02-16T00:16:21;100867.56;;;6.33;100.00
42761;BME280;31672;47.638;19.026;2024-02-16T00:21:25;100860.81;;;6.29;100.00
42761;BME280;31672;47.638;19.026;2024-02-16T00:26:28;100860.97;;;6.27;100.00
42761;BME280;31672;47.638;19.026;2024-02-16T00:31:33;100868.03;;;6.27;100.00
42761;BME280;31672;47.638;19.026;2024-02-16T00:36:37;100868.53;;;6.21;100.00
42761;BME280;31672;47.638;19.026;2024-02-16T00:41:40;100869.75;;;6.16;100.00
42761;BME280;31672;47.638;19.026;2024-02-16T00:46:46;100868.78;;;6.17;100.00
42761;BME280;31672;47.638;19.026;2024-02-16T00:51:52;100860.97;;;6.16;100.00
42761;BME280;31672;47.638;19.026;2024-02-16T00:57:12;100858.81;;;6.21;100.00
42761;BME280;31672;47.638;19.026;2024-02-16T01:02:32;100855.47;;;6.19;100.00
42761;BME280;31672;47.638;19.026;2024-02-16T01:07:44;100857.16;;;6.20;100.00
42761;BME280;31672;47.638;19.026;2024-02-16T01:12:49;100851.16;;;6.18;100.00
42761;BME280;31672;47.638;19.026;2024-02-16T01:17:56;100848.88;;;6.13;100.00
42761;BME280;31672;47.638;19.026;2024-02-16T01:23:00;100850.34;;;6.06;100.00
42761;BME280;31672;47.638;19.026;2024-02-16T01:28:07;100852.72;;;5.87;100.00
42761;BME280;31672;47.638;19.026;2024-02-16T01:33:11;100851.53;;;5.57;100.00
42761;BME280;31672;47.638;19.026;2024-02-16T01:38:16;100848.41;;;5.30;100.00
42761;BME280;31672;47.638;19.026;2024-02-16T01:43:20;100846.06;;;5.03;100.00
42761;BME280;31672;47.638;19.026;2024-02-16T01:48:24;100853.81;;;4.82;100.00
42761;BME280;31672;47.638;19.026;2024-02-16T01:53:29;100846.78;;;4.59;100.00
42761;BME280;31672;47.638;19.026;2024-02-16T01:58:34;100856.03;;;4.40;100.00
42761;BME280;31672;47.638;19.026;2024-02-16T02:03:37;100849.94;;;4.16;100.00
42761;BME280;31672;47.638;19.026;2024-02-16T02:08:41;100854.59;;;3.99;100.00
42761;BME280;31672;47.638;19.026;2024-02-16T02:13:44;100836.56;;;3.82;100.00
42761;BME280;31672;47.638;19.026;2024-02-16T02:18:48;100848.88;;;3.69;100.00
42761;BME280;31672;47.638;19.026;2024-02-16T02:23:52;100838.28;;;3.58;100.00
42761;BME280;31672;47.638;19.026;2024-02-16T02:28:56;100846.31;;;3.43;100.00
42761;BME280;31672;47.638;19.026;2024-02-16T02:34:00;100854.91;;;3.33;100.00
42761;BME280;31672;47.638;19.026;2024-02-16T02:39:03;100861.66;;;3.24;100.00
42761;BME280;31672;47.638;19.026;2024-02-16T02:44:07;100853.75;;;3.11;100.00
42761;BME280;31672;47.638;19.026;2024-02-16T02:49:10;100850.63;;;3.06;100.00
42761;BME280;31672;47.638;19.026;2024-02-16T02:54:14;100845.84;;;2.99;100.00
42761;BME280;31672;47.638;19.026;2024-02-16T02:59:17;100862.44;;;2.86;100.00
42761;BME280;31672;47.638;19.026;2024-02-16T03:04:21;100851.63;;;2.78;100.00
42761;BME280;31672;47.638;19.026;2024-02-16T03:09:24;100858.41;;;2.68;100.00
42761;BME280;31672;47.638;19.026;2024-02-16T03:14:27;100855.84;;;2.54;100.00
42761;BME280;31672;47.638;19.026;2024-02-16T03:19:31;100863.38;;;2.46;100.00
42761;BME280;31672;47.638;19.026;2024-02-16T03:24:35;100861.34;;;2.36;100.00
42761;BME280;31672;47.638;19.026;2024-02-16T03:29:39;100851.53;;;2.26;100.00
42761;BME280;31672;47.638;19.026;2024-02-16T03:34:42;100860.66;;;2.20;100.00
42761;BME280;31672;47.638;19.026;2024-02-16T03:39:46;100858.53;;;2.12;100.00
42761;BME280;31672;47.638;19.026;2024-02-16T03:44:50;100862.47;;;2.05;100.00
42761;BME280;31672;47.638;19.026;2024-02-16T03:49:53;100849.31;;;1.93;100.00
42761;BME280;31672;47.638;19.026;2024-02-16T03:54:57;100859.78;;;1.93;100.00
42761;BME280;31672;47.638;19.026;2024-02-16T04:00:02;100861.09;;;1.85;100.00
42761;BME280;31672;47.638;19.026;2024-02-16T04:05:09;100864.84;;;1.81;100.00
42761;BME280;31672;47.638;19.026;2024-02-16T04:10:12;100867.31;;;1.70;100.00
42761;BME280;31672;47.638;19.026;2024-02-16T04:15:16;100866.00;;;1.63;100.00
42761;BME280;31672;47.638;19.026;2024-02-16T04:20:20;100877.50;;;1.60;100.00
42761;BME280;31672;47.638;19.026;2024-02-16T04:25:23;100877.13;;;1.52;100.00
42761;BME280;31672;47.638;19.026;2024-02-16T04:30:27;100883.19;;;1.53;100.00
42761;BME280;31672;47.638;19.026;2024-02-16T04:35:31;100888.06;;;1.45;100.00
42761;BME280;31672;47.638;19.026;2024-02-16T04:40:37;100889.19;;;1.41;100.00
42761;BME280;31672;47.638;19.026;2024-02-16T04:45:41;100888.63;;;1.36;100.00
42761;BME280;31672;47.638;19.026;2024-02-16T04:50:46;100892.34;;;1.31;100.00
42761;BME280;31672;47.638;19.026;2024-02-16T04:55:50;100887.41;;;1.27;100.00
42761;BME280;31672;47.638;19.026;2024-02-16T05:00:53;100885.91;;;1.23;100.00
42761;BME280;31672;47.638;19.026;2024-02-16T05:05:57;100890.47;;;1.19;100.00
42761;BME280;31672;47.638;19.026;2024-02-16T05:11:01;100896.81;;;1.15;100.00
42761;BME280;31672;47.638;19.026;2024-02-16T05:16:10;100892.53;;;1.14;100.00
42761;BME280;31672;47.638;19.026;2024-02-16T05:21:14;100904.00;;;1.12;100.00
42761;BME280;31672;47.638;19.026;2024-02-16T05:26:17;100899.81;;;1.09;100.00
42761;BME280;31672;47.638;19.026;2024-02-16T05:31:21;100906.31;;;1.02;100.00
42761;BME280;31672;47.638;19.026;2024-02-16T05:36:24;100890.41;;;0.91;100.00
42761;BME280;31672;47.638;19.026;2024-02-16T05:41:31;100895.66;;;0.91;100.00
42761;BME280;31672;47.638;19.026;2024-02-16T05:46:35;100900.94;;;0.89;100.00
42761;BME280;31672;47.638;19.026;2024-02-16T05:51:41;100902.81;;;0.87;100.00
42761;BME280;31672;47.638;19.026;2024-02-16T05:56:45;100913.13;;;0.90;100.00
42761;BME280;31672;47.638;19.026;2024-02-16T06:01:52;100915.44;;;0.95;100.00
42761;BME280;31672;47.638;19.026;2024-02-16T06:06:56;100913.59;;;0.97;100.00
42761;BME280;31672;47.638;19.026;2024-02-16T06:12:06;100921.53;;;0.95;100.00
42761;BME280;31672;47.638;19.026;2024-02-16T06:17:11;100926.34;;;1.03;100.00
42761;BME280;31672;47.638;19.026;2024-02-16T06:22:14;100931.97;;;1.11;100.00
42761;BME280;31672;47.638;19.026;2024-02-16T06:27:18;100925.44;;;1.18;100.00
42761;BME280;31672;47.638;19.026;2024-02-16T06:32:23;100926.59;;;1.28;100.00
42761;BME280;31672;47.638;19.026;2024-02-16T06:37:26;100939.63;;;1.44;100.00
42761;BME280;31672;47.638;19.026;2024-02-16T06:42:30;100954.13;;;1.64;100.00
42761;BME280;31672;47.638;19.026;2024-02-16T06:47:34;100950.50;;;1.81;100.00
42761;BME280;31672;47.638;19.026;2024-02-16T06:52:38;100963.69;;;2.08;100.00
42761;BME280;31672;47.638;19.026;2024-02-16T06:57:42;100963.38;;;2.41;100.00
42761;BME280;31672;47.638;19.026;2024-02-16T07:02:47;100963.47;;;2.66;100.00
42761;BME280;31672;47.638;19.026;2024-02-16T07:07:50;100968.72;;;2.93;100.00
42761;BME280;31672;47.638;19.026;2024-02-16T07:12:54;100976.56;;;3.20;100.00
42761;BME280;31672;47.638;19.026;2024-02-16T07:17:57;100970.75;;;3.42;100.00
42761;BME280;31672;47.638;19.026;2024-02-16T07:23:01;100976.00;;;3.68;100.00
42761;BME280;31672;47.638;19.026;2024-02-16T07:28:06;100970.03;;;3.91;100.00
42761;BME280;31672;47.638;19.026;2024-02-16T07:33:09;100968.41;;;4.14;100.00
42761;BME280;31672;47.638;19.026;2024-02-16T07:38:13;100961.91;;;5.04;100.00
42761;BME280;31672;47.638;19.026;2024-02-16T07:43:17;100964.25;;;6.34;100.00
42761;BME280;31672;47.638;19.026;2024-02-16T07:48:21;100955.28;;;7.54;100.00
42761;BME280;31672;47.638;19.026;2024-02-16T07:53:26;100946.94;;;8.50;100.00
42761;BME280;31672;47.638;19.026;2024-02-16T07:58:29;100935.28;;;9.30;100.00
42761;BME280;31672;47.638;19.026;2024-02-16T08:03:47;100939.56;;;9.97;100.00
42761;BME280;31672;47.638;19.026;2024-02-16T08:08:53;100935.44;;;10.12;100.00
42761;BME280;31672;47.638;19.026;2024-02-16T08:13:56;100942.66;;;10.57;94.16
42761;BME280;31672;47.638;19.026;2024-02-16T08:19:13;100935.81;;;10.90;87.14
42761;BME280;31672;47.638;19.026;2024-02-16T08:24:18;100932.69;;;11.31;81.84
42761;BME280;31672;47.638;19.026;2024-02-16T08:29:21;100934.09;;;11.69;78.04
42761;BME280;31672;47.638;19.026;2024-02-16T08:34:25;100937.91;;;11.84;72.09
42761;BME280;31672;47.638;19.026;2024-02-16T08:39:30;100933.06;;;12.14;69.15
42761;BME280;31672;47.638;19.026;2024-02-16T08:44:45;100934.91;;;12.21;66.08
42761;BME280;31672;47.638;19.026;2024-02-16T08:49:53;100942.78;;;12.31;65.27
42761;BME280;31672;47.638;19.026;2024-02-16T08:54:56;100930.78;;;12.35;62.65
42761;BME280;31672;47.638;19.026;2024-02-16T09:00:00;100936.81;;;12.45;62.31
42761;BME280;31672;47.638;19.026;2024-02-16T09:05:06;100926.22;;;12.70;59.92
42761;BME280;31672;47.638;19.026;2024-02-16T09:10:13;100926.63;;;13.07;58.92
42761;BME280;31672;47.638;19.026;2024-02-16T09:15:18;100932.31;;;13.21;56.33
42761;BME280;31672;47.638;19.026;2024-02-16T09:20:22;100929.28;;;13.40;56.48
42761;BME280;31672;47.638;19.026;2024-02-16T09:25:26;100927.13;;;13.44;53.90
42761;BME280;31672;47.638;19.026;2024-02-16T09:30:30;100922.63;;;13.28;53.20
42761;BME280;31672;47.638;19.026;2024-02-16T09:35:35;100930.47;;;13.29;52.54
42761;BME280;31672;47.638;19.026;2024-02-16T09:40:38;100930.97;;;13.41;53.19
42761;BME280;31672;47.638;19.026;2024-02-16T09:45:42;100936.19;;;13.98;53.12
42761;BME280;31672;47.638;19.026;2024-02-16T09:50:46;100941.34;;;14.39;50.76
42761;BME280;31672;47.638;19.026;2024-02-16T09:55:50;100936.97;;;14.54;50.12
42761;BME280;31672;47.638;19.026;2024-02-16T10:00:55;100928.50;;;14.73;49.94
42761;BME280;31672;47.638;19.026;2024-02-16T10:06:06;100926.75;;;14.81;48.68
42761;BME280;31672;47.638;19.026;2024-02-16T10:11:11;100924.78;;;14.75;47.55
42761;BME280;31672;47.638;19.026;2024-02-16T10:16:14;100921.97;;;14.06;47.78
42761;BME280;31672;47.638;19.026;2024-02-16T10:21:29;100918.47;;;13.97;48.02
42761;BME280;31672;47.638;19.026;2024-02-16T10:26:35;100908.50;;;14.30;47.09
42761;BME280;31672;47.638;19.026;2024-02-16T10:31:41;100903.69;;;14.80;46.96
42761;BME280;31672;47.638;19.026;2024-02-16T10:36:44;100898.97;;;15.27;46.21
42761;BME280;31672;47.638;19.026;2024-02-16T10:41:49;100890.44;;;15.62;44.90
42761;BME280;31672;47.638;19.026;2024-02-16T10:46:59;100887.00;;;16.12;44.32
42761;BME280;31672;47.638;19.026;2024-02-16T10:52:05;100870.06;;;16.63;42.76
42761;BME280;31672;47.638;19.026;2024-02-16T10:57:16;100868.22;;;16.84;41.10
42761;BME280;31672;47.638;19.026;2024-02-16T11:02:58;100853.56;;;17.08;40.77
42761;BME280;31672;47.638;19.026;2024-02-16T11:08:20;100849.09;;;17.16;39.98
42761;BME280;31672;47.638;19.026;2024-02-16T11:13:27;100849.56;;;17.26;40.93
42761;BME280;31672;47.638;19.026;2024-02-16T11:18:42;100839.00;;;17.24;40.01
42761;BME280;31672;47.638;19.026;2024-02-16T11:23:50;100833.31;;;17.06;39.56
42761;BME280;31672;47.638;19.026;2024-02-16T11:28:56;100826.41;;;16.97;39.96
42761;BME280;31672;47.638;19.026;2024-02-16T11:34:03;100820.88;;;16.55;39.71
42761;BME280;31672;47.638;19.026;2024-02-16T11:39:13;100821.28;;;16.16;40.67
42761;BME280;31672;47.638;19.026;2024-02-16T11:44:19;100820.56;;;16.08;40.97
42761;BME280;31672;47.638;19.026;2024-02-16T11:49:28;100809.09;;;15.99;41.11
42761;BME280;31672;47.638;19.026;2024-02-16T11:54:32;100804.72;;;16.13;41.93
42761;BME280;31672;47.638;19.026;2024-02-16T11:59:36;100800.31;;;16.05;41.23
42761;BME280;31672;47.638;19.026;2024-02-16T12:04:44;100809.44;;;15.74;42.21
42761;BME280;31672;47.638;19.026;2024-02-16T12:10:02;100805.97;;;15.21;42.53
42761;BME280;31672;47.638;19.026;2024-02-16T12:15:15;100793.28;;;14.48;44.16
42761;BME280;31672;47.638;19.026;2024-02-16T12:20:22;100794.13;;;13.86;45.15
42761;BME280;31672;47.638;19.026;2024-02-16T12:25:25;100785.09;;;13.48;46.34
42761;BME280;31672;47.638;19.026;2024-02-16T12:30:29;100788.84;;;13.15;47.74
42761;BME280;31672;47.638;19.026;2024-02-16T12:35:33;100796.56;;;12.85;48.66
42761;BME280;31672;47.638;19.026;2024-02-16T12:40:39;100781.06;;;12.56;49.44
42761;BME280;31672;47.638;19.026;2024-02-16T12:45:42;100792.88;;;12.45;50.14
42761;BME280;31672;47.638;19.026;2024-02-16T12:50:46;100784.38;;;12.33;50.65
42761;BME280;31672;47.638;19.026;2024-02-16T12:55:50;100768.88;;;12.21;51.22
42761;BME280;31672;47.638;19.026;2024-02-16T13:00:54;100775.38;;;12.18;51.61
42761;BME280;31672;47.638;19.026;2024-02-16T13:06:05;100770.53;;;12.14;51.77
42761;BME280;31672;47.638;19.026;2024-02-16T13:11:10;100771.53;;;12.13;52.14
42761;BME280;31672;47.638;19.026;2024-02-16T13:16:17;100755.16;;;11.99;52.14
42761;BME280;31672;47.638;19.026;2024-02-16T13:21:21;100757.53;;;11.94;52.77
42761;BME280;31672;47.638;19.026;2024-02-16T13:26:32;100755.81;;;11.93;52.78
42761;BME280;31672;47.638;19.026;2024-02-16T13:31:41;100756.47;;;11.87;53.14
42761;BME280;31672;47.638;19.026;2024-02-16T13:36:45;100754.81;;;11.86;53.38
42761;BME280;31672;47.638;19.026;2024-02-16T13:41:58;100748.44;;;11.79;53.63
42761;BME280;31672;47.638;19.026;2024-02-16T13:47:08;100750.94;;;11.80;53.47
42761;BME280;31672;47.638;19.026;2024-02-16T13:52:20;100748.44;;;11.71;53.33
42761;BME280;31672;47.638;19.026;2024-02-16T13:57:27;100751.41;;;11.68;53.97
42761;BME280;31672;47.638;19.026;2024-02-16T14:02:33;100741.94;;;11.65;54.19
42761;BME280;31672;47.638;19.026;2024-02-16T14:07:37;100747.75;;;11.69;54.44
42761;BME280;31672;47.638;19.026;2024-02-16T14:12:56;100744.91;;;11.62;54.41
42761;BME280;31672;47.638;19.026;2024-02-16T14:18:00;100747.91;;;11.59;55.21
42761;BME280;31672;47.638;19.026;2024-02-16T14:23:14;100747.06;;;11.59;55.03
42761;BME280;31672;47.638;19.026;2024-02-16T14:28:17;100743.03;;;11.55;55.18
42761;BME280;31672;47.638;19.026;2024-02-16T14:33:21;100746.53;;;11.47;55.13
42761;BME280;31672;47.638;19.026;2024-02-16T14:38:36;100754.63;;;11.45;55.56
42761;BME280;31672;47.638;19.026;2024-02-16T14:43:40;100745.16;;;11.43;55.92
42761;BME280;31672;47.638;19.026;2024-02-16T14:48:44;100739.81;;;11.35;56.37
42761;BME280;31672;47.638;19.026;2024-02-16T14:53:48;100737.47;;;11.32;56.20
42761;BME280;31672;47.638;19.026;2024-02-16T14:58:53;100746.06;;;11.25;56.92
42761;BME280;31672;47.638;19.026;2024-02-16T15:03:56;100744.50;;;11.15;57.14
42761;BME280;31672;47.638;19.026;2024-02-16T15:09:00;100736.50;;;11.07;57.58
42761;BME280;31672;47.638;19.026;2024-02-16T15:14:05;100743.44;;;10.99;58.02
42761;BME280;31672;47.638;19.026;2024-02-16T15:19:09;100735.56;;;10.90;58.41
42761;BME280;31672;47.638;19.026;2024-02-16T15:24:14;100730.66;;;10.77;59.01
42761;BME280;31672;47.638;19.026;2024-02-16T15:29:17;100740.88;;;10.64;59.45
42761;BME280;31672;47.638;19.026;2024-02-16T15:34:25;100751.22;;;10.49;59.79
42761;BME280;31672;47.638;19.026;2024-02-16T15:39:29;100746.78;;;10.32;60.52
42761;BME280;31672;47.638;19.026;2024-02-16T15:44:32;100741.44;;;10.14;61.23
42761;BME280;31672;47.638;19.026;2024-02-16T15:49:36;100751.22;;;9.96;61.83
42761;BME280;31672;47.638;19.026;2024-02-16T15:54:40;100751.03;;;9.79;61.97
42761;BME280;31672;47.638;19.026;2024-02-16T15:59:45;100762.50;;;9.52;62.73
42761;BME280;31672;47.638;19.026;2024-02-16T16:04:49;100763.84;;;9.29;63.73
42761;BME280;31672;47.638;19.026;2024-02-16T16:09:54;100765.34;;;9.04;64.31
42761;BME280;31672;47.638;19.026;2024-02-16T16:14:58;100776.41;;;8.80;65.21
42761;BME280;31672;47.638;19.026;2024-02-16T16:20:02;100783.13;;;8.55;65.81
42761;BME280;31672;47.638;19.026;2024-02-16T16:25:08;100784.91;;;8.25;66.47
42761;BME280;31672;47.638;19.026;2024-02-16T16:30:12;100796.28;;;7.97;67.77
42761;BME280;31672;47.638;19.026;2024-02-16T16:35:16;100796.94;;;7.70;68.50
42761;BME280;31672;47.638;19.026;2024-02-16T16:40:20;100809.28;;;7.50;70.28
42761;BME280;31672;47.638;19.026;2024-02-16T16:45:23;100802.72;;;7.23;71.29
42761;BME280;31672;47.638;19.026;2024-02-16T16:50:33;100813.78;;;7.08;72.47
42761;BME280;31672;47.638;19.026;2024-02-16T16:55:36;100809.19;;;6.89;74.22
42761;BME280;31672;47.638;19.026;2024-02-16T17:00:43;100805.72;;;6.67;75.93
42761;BME280;31672;47.638;19.026;2024-02-16T17:05:51;100809.06;;;6.49;77.05
42761;BME280;31672;47.638;19.026;2024-02-16T17:10:55;100826.03;;;6.35;78.41
42761;BME280;31672;47.638;19.026;2024-02-16T17:16:04;100828.63;;;6.14;80.22
42761;BME280;31672;47.638;19.026;2024-02-16T17:21:11;100829.00;;;5.98;81.20
42761;BME280;31672;47.638;19.026;2024-02-16T17:26:18;100838.13;;;5.83;81.73
42761;BME280;31672;47.638;19.026;2024-02-16T17:31:28;100837.50;;;5.68;82.75
42761;BME280;31672;47.638;19.026;2024-02-16T17:36:32;100841.25;;;5.54;84.66
42761;BME280;31672;47.638;19.026;2024-02-16T17:41:35;100848.53;;;5.40;85.55
42761;BME280;31672;47.638;19.026;2024-02-16T17:46:39;100846.13;;;5.25;85.90
42761;BME280;31672;47.638;19.026;2024-02-16T17:51:43;100844.44;;;5.13;86.79
42761;BME280;31672;47.638;19.026;2024-02-16T17:56:47;100841.28;;;4.97;88.38
42761;BME280;31672;47.638;19.026;2024-02-16T18:01:51;100838.41;;;4.89;89.12
42761;BME280;31672;47.638;19.026;2024-02-16T18:06:55;100845.19;;;4.80;90.00
42761;BME280;31672;47.638;19.026;2024-02-16T18:11:58;100842.75;;;4.66;90.90
42761;BME280;31672;47.638;19.026;2024-02-16T18:17:05;100857.06;;;4.62;92.39
42761;BME280;31672;47.638;19.026;2024-02-16T18:22:11;100854.69;;;4.59;93.98
42761;BME280;31672;47.638;19.026;2024-02-16T18:27:18;100862.19;;;4.52;94.75
42761;BME280;31672;47.638;19.026;2024-02-16T18:32:22;100857.59;;;4.43;95.31
42761;BME280;31672;47.638;19.026;2024-02-16T18:37:25;100854.06;;;4.31;95.97
42761;BME280;31672;47.638;19.026;2024-02-16T18:42:29;100860.97;;;4.21;96.75
42761;BME280;31672;47.638;19.026;2024-02-16T18:47:38;100855.84;;;4.07;97.08
42761;BME280;31672;47.638;19.026;2024-02-16T18:52:42;100873.28;;;4.08;98.41
42761;BME280;31672;47.638;19.026;2024-02-16T18:57:46;100860.31;;;3.93;99.31
42761;BME280;31672;47.638;19.026;2024-02-16T19:02:50;100874.41;;;3.92;99.90
42761;BME280;31672;47.638;19.026;2024-02-16T19:07:56;100878.41;;;3.85;100.00
42761;BME280;31672;47.638;19.026;2024-02-16T19:13:00;100884.00;;;3.81;100.00
42761;BME280;31672;47.638;19.026;2024-02-16T19:18:07;100879.38;;;3.71;100.00
42761;BME280;31672;47.638;19.026;2024-02-16T19:23:11;100894.41;;;3.69;100.00
42761;BME280;31672;47.638;19.026;2024-02-16T19:28:19;100884.56;;;3.60;100.00
42761;BME280;31672;47.638;19.026;2024-02-16T19:33:23;100891.06;;;3.55;100.00
42761;BME280;31672;47.638;19.026;2024-02-16T19:38:27;100895.91;;;3.48;100.00
42761;BME280;31672;47.638;19.026;2024-02-16T19:43:31;100906.63;;;3.45;100.00
42761;BME280;31672;47.638;19.026;2024-02-16T19:48:34;100898.19;;;3.27;100.00
42761;BME280;31672;47.638;19.026;2024-02-16T19:53:38;100911.63;;;3.22;100.00
42761;BME280;31672;47.638;19.026;2024-02-16T19:58:43;100921.72;;;3.16;100.00
42761;BME280;31672;47.638;19.026;2024-02-16T20:03:47;100908.78;;;3.00;100.00
42761;BME280;31672;47.638;19.026;2024-02-16T20:08:51;100914.53;;;2.92;100.00
42761;BME280;31672;47.638;19.026;2024-02-16T20:13:54;100912.41;;;2.85;100.00
42761;BME280;31672;47.638;19.026;2024-02-16T20:19:00;100920.47;;;2.82;100.00
42761;BME280;31672;47.638;19.026;2024-02-16T20:24:05;100919.97;;;2.77;100.00
42761;BME280;31672;47.638;19.026;2024-02-16T20:29:08;100919.13;;;2.76;100.00
42761;BME280;31672;47.638;19.026;2024-02-16T20:34:12;100923.81;;;2.71;100.00
42761;BME280;31672;47.638;19.026;2024-02-16T20:39:16;100915.59;;;2.63;100.00
42761;BME280;31672;47.638;19.026;2024-02-16T20:44:20;100914.13;;;2.59;100.00
42761;BME280;31672;47.638;19.026;2024-02-16T20:49:24;100919.78;;;2.53;100.00
42761;BME280;31672;47.638;19.026;2024-02-16T20:54:29;100923.69;;;2.46;100.00
42761;BME280;31672;47.638;19.026;2024-02-16T20:59:34;100934.31;;;2.44;100.00
42761;BME280;31672;47.638;19.026;2024-02-16T21:04:37;100927.09;;;2.33;100.00
42761;BME280;31672;47.638;19.026;2024-02-16T21:09:41;100935.47;;;2.26;100.00
42761;BME280;31672;47.638;19.026;2024-02-16T21:14:45;100939.31;;;2.20;100.00
42761;BME280;31672;47.638;19.026;2024-02-16T21:19:49;100920.53;;;1.99;100.00
42761;BME280;31672;47.638;19.026;2024-02-16T21:24:55;100942.06;;;2.04;100.00
42761;BME280;31672;47.638;19.026;2024-02-16T21:30:00;100944.97;;;2.00;100.00
42761;BME280;31672;47.638;19.026;2024-02-16T21:35:07;100944.69;;;1.90;100.00
42761;BME280;31672;47.638;19.026;2024-02-16T21:40:14;100948.34;;;1.87;100.00
42761;BME280;31672;47.638;19.026;2024-02-16T21:45:19;100955.91;;;1.78;100.00
42761;BME280;31672;47.638;19.026;2024-02-16T21:50:24;100952.94;;;1.70;100.00
42761;BME280;31672;47.638;19.026;2024-02-16T21:55:28;100933.16;;;1.50;100.00
42761;BME280;31672;47.638;19.026;2024-02-16T22:00:32;100953.66;;;1.57;100.00
42761;BME280;31672;47.638;19.026;2024-02-16T22:05:36;100966.28;;;1.65;100.00
42761;BME280;31672;47.638;19.026;2024-02-16T22:10:40;100966.41;;;1.64;100.00
42761;BME280;31672;47.638;19.026;2024-02-16T22:15:44;100959.75;;;1.58;100.00
42761;BME280;31672;47.638;19.026;2024-02-16T22:20:51;100969.38;;;1.57;100.00
42761;BME280;31672;47.638;19.026;2024-02-16T22:25:54;100964.69;;;1.48;100.00
42761;BME280;31672;47.638;19.026;2024-02-16T22:30:58;100963.19;;;1.44;100.00
42761;BME280;31672;47.638;19.026;2024-02-16T22:36:03;100965.88;;;1.43;100.00
42761;BME280;31672;47.638;19.026;2024-02-16T22:41:07;100968.97;;;1.35;100.00
42761;BME280;31672;47.638;19.026;2024-02-16T22:46:14;100968.47;;;1.28;100.00
42761;BME280;31672;47.638;19.026;2024-02-16T22:51:19;100968.47;;;1.28;100.00
42761;BME280;31672;47.638;19.026;2024-02-16T22:56:22;100979.13;;;1.25;100.00
42761;BME280;31672;47.638;19.026;2024-02-16T23:01:26;100968.25;;;1.17;100.00
42761;BME280;31672;47.638;19.026;2024-02-16T23:06:29;100975.44;;;1.14;100.00
42761;BME280;31672;47.638;19.026;2024-02-16T23:11:33;100973.09;;;1.09;100.00
42761;BME280;31672;47.638;19.026;2024-02-16T23:16:37;100980.38;;;1.04;100.00
42761;BME280;31672;47.638;19.026;2024-02-16T23:21:40;100981.47;;;1.00;100.00
42761;BME280;31672;47.638;19.026;2024-02-16T23:26:45;100983.44;;;0.96;100.00
42761;BME280;31672;47.638;19.026;2024-02-16T23:31:48;100985.13;;;0.97;100.00
42761;BME280;31672;47.638;19.026;2024-02-16T23:36:52;100985.38;;;0.93;100.00
42761;BME280;31672;47.638;19.026;2024-02-16T23:41:58;100977.69;;;0.90;100.00
42761;BME280;31672;47.638;19.026;2024-02-16T23:47:03;100972.63;;;0.87;100.00
42761;BME280;31672;47.638;19.026;2024-02-16T23:52:08;100982.16;;;0.88;100.00
42761;BME280;31672;47.638;19.026;2024-02-16T23:57:12;100981.41;;;0.86;100.00
